createdAt,value
2017-02-22T00:00:11.859Z,9.48
2017-02-22T00:00:52.508Z,9.56
2017-02-22T00:01:33.123Z,9.58
2017-02-22T00:02:13.687Z,9.51
2017-02-22T00:02:54.301Z,9.51
2017-02-22T00:03:34.995Z,9.51
2017-02-22T00:04:15.631Z,9.54
2017-02-22T00:04:56.279Z,9.55
2017-02-22T00:05:36.903Z,9.54
2017-02-22T00:06:17.497Z,9.59
2017-02-22T00:06:58.132Z,9.54
2017-02-22T00:07:38.762Z,9.54
2017-02-22T00:08:19.372Z,9.58
2017-02-22T00:09:00.048Z,9.59
2017-02-22T00:09:40.649Z,9.55
2017-02-22T00:10:21.278Z,9.48
2017-02-22T00:11:01.965Z,9.5
2017-02-22T00:11:42.617Z,9.5
2017-02-22T00:12:23.236Z,9.59
2017-02-22T00:13:03.861Z,9.46
2017-02-22T00:13:44.440Z,9.58
2017-02-22T00:14:25.065Z,9.58
2017-02-22T00:15:05.669Z,9.54
2017-02-22T00:15:46.249Z,9.54
2017-02-22T00:16:26.882Z,9.59
2017-02-22T00:17:07.504Z,9.55
2017-02-22T00:17:48.119Z,9.55
2017-02-22T00:19:26.335Z,9.55
2017-02-22T00:20:06.946Z,9.56
2017-02-22T00:20:47.534Z,9.55
2017-02-22T00:21:28.170Z,9.55
2017-02-22T00:22:08.730Z,9.59
2017-02-22T00:22:49.368Z,9.64
2017-02-22T00:23:30.037Z,9.58
2017-02-22T00:24:10.677Z,9.59
2017-02-22T00:24:51.296Z,9.61
2017-02-22T00:25:31.898Z,9.54
2017-02-22T00:26:12.537Z,9.61
2017-02-22T00:26:53.168Z,9.64
2017-02-22T00:27:33.803Z,9.65
2017-02-22T00:28:14.378Z,9.61
2017-02-22T00:28:54.988Z,9.58
2017-02-22T00:29:35.679Z,9.65
2017-02-22T00:30:16.331Z,9.65
2017-02-22T00:30:56.868Z,9.65
2017-02-22T00:31:37.477Z,9.64
2017-02-22T00:32:18.067Z,9.66
2017-02-22T00:32:58.640Z,9.66
2017-02-22T00:33:39.285Z,9.65
2017-02-22T00:34:19.938Z,9.68
2017-02-22T00:35:00.576Z,9.61
2017-02-22T00:35:41.247Z,9.61
2017-02-22T00:36:21.857Z,9.64
2017-02-22T00:37:02.503Z,9.64
2017-02-22T00:37:43.100Z,9.66
2017-02-22T00:38:23.720Z,9.66
2017-02-22T00:39:04.392Z,9.66
2017-02-22T00:39:45.008Z,9.64
2017-02-22T00:40:25.679Z,9.62
2017-02-22T00:41:06.328Z,9.68
2017-02-22T00:41:46.964Z,9.64
2017-02-22T00:42:27.573Z,9.64
2017-02-22T00:43:08.205Z,9.59
2017-02-22T00:43:48.841Z,9.65
2017-02-22T00:44:29.477Z,9.64
2017-02-22T00:45:10.099Z,9.66
2017-02-22T00:45:50.721Z,9.64
2017-02-22T00:46:31.404Z,9.66
2017-02-22T00:47:12.110Z,9.76
2017-02-22T00:47:52.718Z,9.72
2017-02-22T00:48:33.344Z,9.65
2017-02-22T00:49:14.004Z,9.73
2017-02-22T00:49:54.598Z,9.62
2017-02-22T00:50:35.218Z,9.76
2017-02-22T00:51:15.838Z,9.68
2017-02-22T00:51:56.516Z,9.73
2017-02-22T00:52:37.120Z,9.65
2017-02-22T00:53:17.751Z,9.65
2017-02-22T00:53:58.360Z,9.66
2017-02-22T00:54:39.012Z,9.77
2017-02-22T00:55:19.637Z,9.66
2017-02-22T00:56:00.235Z,9.77
2017-02-22T00:56:40.853Z,9.62
2017-02-22T00:57:21.502Z,9.76
2017-02-22T00:58:02.078Z,9.74
2017-02-22T00:58:42.687Z,9.62
2017-02-22T00:59:23.250Z,9.66
2017-02-22T01:00:03.875Z,9.72
2017-02-22T01:00:44.414Z,9.72
2017-02-22T01:01:25.038Z,9.73
2017-02-22T01:02:05.656Z,9.73
2017-02-22T01:02:46.237Z,9.73
2017-02-22T01:03:26.840Z,9.79
2017-02-22T01:04:07.412Z,9.76
2017-02-22T01:04:48.054Z,9.76
2017-02-22T01:05:28.688Z,9.72
2017-02-22T01:06:09.339Z,9.73
2017-02-22T01:06:49.940Z,9.8
2017-02-22T01:07:30.537Z,9.8
2017-02-22T01:08:11.207Z,9.8
2017-02-22T01:08:51.821Z,9.84
2017-02-22T01:09:32.401Z,9.74
2017-02-22T01:10:13.039Z,9.77
2017-02-22T01:10:53.641Z,9.72
2017-02-22T01:11:34.284Z,9.76
2017-02-22T01:12:14.947Z,9.74
2017-02-22T01:12:55.549Z,9.76
2017-02-22T01:13:36.180Z,9.76
2017-02-22T01:14:16.842Z,9.73
2017-02-22T01:14:57.460Z,9.77
2017-02-22T01:15:38.079Z,9.77
2017-02-22T01:16:18.694Z,9.79
2017-02-22T01:16:59.326Z,9.82
2017-02-22T01:17:39.917Z,9.82
2017-02-22T01:18:21.312Z,9.8
2017-02-22T01:19:01.901Z,9.84
2017-02-22T01:19:42.559Z,9.76
2017-02-22T01:20:23.167Z,9.83
2017-02-22T01:21:03.797Z,9.82
2017-02-22T01:21:44.409Z,9.83
2017-02-22T01:22:25.035Z,9.84
2017-02-22T01:23:05.644Z,9.79
2017-02-22T01:23:46.260Z,9.82
2017-02-22T01:24:26.936Z,9.89
2017-02-22T01:25:07.586Z,9.82
2017-02-22T01:25:48.196Z,9.89
2017-02-22T01:26:28.814Z,9.79
2017-02-22T01:27:09.412Z,9.92
2017-02-22T01:27:50.000Z,9.84
2017-02-22T01:28:30.636Z,9.86
2017-02-22T01:29:11.315Z,9.86
2017-02-22T01:29:51.945Z,9.91
2017-02-22T01:30:32.561Z,9.82
2017-02-22T01:31:13.156Z,9.84
2017-02-22T01:31:53.778Z,9.86
2017-02-22T01:32:34.384Z,9.82
2017-02-22T01:33:14.990Z,9.84
2017-02-22T01:33:55.605Z,9.94
2017-02-22T01:34:36.199Z,9.95
2017-02-22T01:35:16.786Z,9.97
2017-02-22T01:35:57.429Z,9.86
2017-02-22T01:36:38.035Z,9.84
2017-02-22T01:37:18.623Z,9.95
2017-02-22T01:37:59.202Z,9.97
2017-02-22T01:38:39.860Z,9.86
2017-02-22T01:39:20.472Z,9.86
2017-02-22T01:40:01.110Z,9.95
2017-02-22T01:40:41.696Z,9.92
2017-02-22T01:41:22.305Z,9.95
2017-02-22T01:42:02.919Z,9.95
2017-02-22T01:42:43.523Z,9.84
2017-02-22T01:43:24.151Z,9.97
2017-02-22T01:44:04.788Z,9.97
2017-02-22T01:44:45.387Z,9.97
2017-02-22T01:45:26.032Z,9.97
2017-02-22T01:46:06.679Z,9.92
2017-02-22T01:46:47.278Z,9.98
2017-02-22T01:47:27.892Z,9.94
2017-02-22T01:48:08.518Z,9.94
2017-02-22T01:48:49.271Z,9.98
2017-02-22T01:49:29.865Z,9.98
2017-02-22T01:50:10.491Z,9.92
2017-02-22T01:50:51.054Z,9.98
2017-02-22T01:51:31.712Z,9.95
2017-02-22T01:52:12.356Z,9.94
2017-02-22T01:52:52.924Z,9.98
2017-02-22T01:53:33.536Z,9.91
2017-02-22T01:54:14.149Z,10.02
2017-02-22T01:54:54.719Z,9.95
2017-02-22T01:55:35.311Z,9.98
2017-02-22T01:56:15.915Z,9.94
2017-02-22T01:56:56.536Z,9.92
2017-02-22T01:57:37.144Z,10.05
2017-02-22T01:58:17.737Z,9.99
2017-02-22T01:58:58.360Z,9.98
2017-02-22T01:59:38.932Z,9.99
2017-02-22T02:00:19.583Z,9.94
2017-02-22T02:01:00.210Z,10.05
2017-02-22T02:01:40.807Z,10.05
2017-02-22T02:02:21.389Z,10.05
2017-02-22T02:03:01.980Z,10.05
2017-02-22T02:03:42.615Z,10.01
2017-02-22T02:04:23.234Z,10.05
2017-02-22T02:05:03.858Z,9.98
2017-02-22T02:05:44.530Z,10.04
2017-02-22T02:06:25.142Z,10.04
2017-02-22T02:07:05.717Z,10.04
2017-02-22T02:07:46.328Z,10.02
2017-02-22T02:08:26.927Z,9.99
2017-02-22T02:09:07.518Z,9.99
2017-02-22T02:09:48.180Z,9.99
2017-02-22T02:10:28.756Z,10.02
2017-02-22T02:11:09.363Z,9.99
2017-02-22T02:11:49.986Z,9.95
2017-02-22T02:12:30.573Z,9.98
2017-02-22T02:13:11.137Z,10.1
2017-02-22T02:13:51.794Z,10.04
2017-02-22T02:14:32.384Z,10.02
2017-02-22T02:15:13.015Z,10.07
2017-02-22T02:15:53.653Z,10.04
2017-02-22T02:16:34.280Z,10.12
2017-02-22T02:17:14.889Z,10.1
2017-02-22T02:17:55.504Z,9.97
2017-02-22T02:18:36.101Z,10.04
2017-02-22T02:19:16.731Z,10.07
2017-02-22T02:19:57.356Z,9.99
2017-02-22T02:20:38.060Z,10.07
2017-02-22T02:21:18.700Z,9.97
2017-02-22T02:21:59.324Z,9.99
2017-02-22T02:22:39.942Z,9.98
2017-02-22T02:23:20.555Z,10.04
2017-02-22T02:24:01.183Z,10.02
2017-02-22T02:24:41.812Z,9.99
2017-02-22T02:25:22.434Z,10.1
2017-02-22T02:26:03.041Z,10.01
2017-02-22T02:26:43.626Z,10.07
2017-02-22T02:27:24.218Z,10.1
2017-02-22T02:28:04.821Z,10.12
2017-02-22T02:28:45.437Z,10.05
2017-02-22T02:29:26.028Z,10.07
2017-02-22T02:30:06.617Z,10.09
2017-02-22T02:30:47.215Z,10.07
2017-02-22T02:31:27.815Z,10.1
2017-02-22T02:32:08.462Z,10.07
2017-02-22T02:32:49.073Z,10.15
2017-02-22T02:33:29.694Z,10.09
2017-02-22T02:34:10.278Z,10.09
2017-02-22T02:34:50.933Z,10.1
2017-02-22T02:35:31.477Z,10.13
2017-02-22T02:36:12.057Z,10.07
2017-02-22T02:36:52.666Z,10.07
2017-02-22T02:37:33.282Z,10.09
2017-02-22T02:38:13.865Z,10.09
2017-02-22T02:38:54.473Z,10.13
2017-02-22T02:39:35.095Z,10.12
2017-02-22T02:40:15.675Z,10.07
2017-02-22T02:40:56.285Z,10.07
2017-02-22T02:41:36.903Z,10.05
2017-02-22T02:42:17.490Z,10.1
2017-02-22T02:42:58.106Z,10.07
2017-02-22T02:43:38.716Z,10.15
2017-02-22T02:44:19.401Z,10.05
2017-02-22T02:45:00.013Z,10.15
2017-02-22T02:45:40.657Z,10.1
2017-02-22T02:46:21.237Z,10.12
2017-02-22T02:47:01.840Z,10.1
2017-02-22T02:47:42.439Z,10.09
2017-02-22T02:48:23.022Z,10.1
2017-02-22T02:49:03.649Z,10.13
2017-02-22T02:49:44.292Z,10.07
2017-02-22T02:50:24.915Z,10.13
2017-02-22T02:51:05.515Z,10.15
2017-02-22T02:51:46.137Z,10.13
2017-02-22T02:52:26.758Z,10.1
2017-02-22T02:53:07.379Z,10.09
2017-02-22T02:53:47.977Z,10.1
2017-02-22T02:54:28.545Z,10.15
2017-02-22T02:55:09.163Z,10.05
2017-02-22T02:55:49.749Z,10.15
2017-02-22T02:56:30.379Z,10.09
2017-02-22T02:57:11.023Z,10.19
2017-02-22T02:57:51.600Z,10.19
2017-02-22T02:58:32.240Z,10.13
2017-02-22T02:59:12.852Z,10.1
2017-02-22T02:59:53.460Z,10.17
2017-02-22T03:00:34.064Z,10.19
2017-02-22T03:01:14.690Z,10.1
2017-02-22T03:01:55.299Z,10.17
2017-02-22T03:02:35.895Z,10.13
2017-02-22T03:03:16.519Z,10.15
2017-02-22T03:03:57.135Z,10.26
2017-02-22T03:04:37.725Z,10.22
2017-02-22T03:05:18.382Z,10.19
2017-02-22T03:05:59.006Z,10.19
2017-02-22T03:06:39.624Z,10.07
2017-02-22T03:07:20.221Z,10.2
2017-02-22T03:08:00.880Z,10.16
2017-02-22T03:08:41.473Z,10.16
2017-02-22T03:09:22.099Z,10.12
2017-02-22T03:10:02.749Z,10.12
2017-02-22T03:10:43.379Z,10.3
2017-02-22T03:11:23.955Z,10.1
2017-02-22T03:12:04.576Z,10.25
2017-02-22T03:12:59.927Z,10.31
2017-02-22T03:13:40.502Z,10.26
2017-02-22T03:14:21.065Z,10.15
2017-02-22T03:15:01.668Z,10.23
2017-02-22T03:15:42.292Z,10.19
2017-02-22T03:16:22.879Z,10.25
2017-02-22T03:17:03.469Z,10.22
2017-02-22T03:17:44.097Z,10.26
2017-02-22T03:18:24.699Z,10.23
2017-02-22T03:19:05.317Z,10.19
2017-02-22T03:19:45.951Z,10.12
2017-02-22T03:20:26.573Z,10.15
2017-02-22T03:21:07.186Z,10.19
2017-02-22T03:21:47.793Z,10.22
2017-02-22T03:22:28.395Z,10.26
2017-02-22T03:23:09.030Z,10.19
2017-02-22T03:23:49.633Z,10.25
2017-02-22T03:24:30.265Z,10.28
2017-02-22T03:25:10.882Z,10.17
2017-02-22T03:25:51.491Z,10.19
2017-02-22T03:26:32.102Z,10.28
2017-02-22T03:27:12.722Z,10.19
2017-02-22T03:27:53.306Z,10.19
2017-02-22T03:28:33.900Z,10.28
2017-02-22T03:29:14.604Z,10.16
2017-02-22T03:29:55.205Z,10.19
2017-02-22T03:30:35.813Z,10.26
2017-02-22T03:31:16.421Z,10.22
2017-02-22T03:31:57.019Z,10.3
2017-02-22T03:32:37.685Z,10.25
2017-02-22T03:33:18.285Z,10.17
2017-02-22T03:33:58.882Z,10.28
2017-02-22T03:34:39.495Z,10.26
2017-02-22T03:35:20.082Z,10.23
2017-02-22T03:36:00.734Z,10.26
2017-02-22T03:36:41.349Z,10.25
2017-02-22T03:37:22.003Z,10.26
2017-02-22T03:38:02.613Z,10.15
2017-02-22T03:38:43.260Z,10.31
2017-02-22T03:39:23.833Z,10.19
2017-02-22T03:40:04.471Z,10.17
2017-02-22T03:40:45.096Z,10.22
2017-02-22T03:41:25.671Z,10.17
2017-02-22T03:42:06.346Z,10.22
2017-02-22T03:42:46.950Z,10.25
2017-02-22T03:43:27.526Z,10.28
2017-02-22T03:44:08.131Z,10.26
2017-02-22T03:44:48.734Z,10.26
2017-02-22T03:45:29.393Z,10.26
2017-02-22T03:46:10.013Z,10.26
2017-02-22T03:46:50.672Z,10.22
2017-02-22T03:47:31.271Z,10.33
2017-02-22T03:48:11.909Z,10.3
2017-02-22T03:48:52.529Z,10.3
2017-02-22T03:49:33.177Z,10.22
2017-02-22T03:50:13.807Z,10.33
2017-02-22T03:50:54.402Z,10.17
2017-02-22T03:51:35.034Z,10.26
2017-02-22T03:52:15.656Z,10.23
2017-02-22T03:52:56.242Z,10.26
2017-02-22T03:53:36.886Z,10.22
2017-02-22T03:54:17.544Z,10.28
2017-02-22T03:54:58.148Z,10.23
2017-02-22T03:55:38.749Z,10.26
2017-02-22T03:56:19.336Z,10.33
2017-02-22T03:56:59.977Z,10.28
2017-02-22T03:57:40.580Z,10.25
2017-02-22T03:58:21.233Z,10.2
2017-02-22T03:59:01.843Z,10.3
2017-02-22T03:59:42.432Z,10.23
2017-02-22T04:00:23.011Z,10.3
2017-02-22T04:01:03.624Z,10.31
2017-02-22T04:01:44.297Z,10.19
2017-02-22T04:02:24.871Z,10.19
2017-02-22T04:03:05.475Z,10.25
2017-02-22T04:03:46.090Z,10.28
2017-02-22T04:04:26.678Z,10.19
2017-02-22T04:05:07.254Z,10.28
2017-02-22T04:05:47.906Z,10.17
2017-02-22T04:06:28.537Z,10.3
2017-02-22T04:07:09.135Z,10.33
2017-02-22T04:07:49.733Z,10.3
2017-02-22T04:08:30.349Z,10.3
2017-02-22T04:09:10.950Z,10.42
2017-02-22T04:09:51.595Z,10.31
2017-02-22T04:10:32.214Z,10.35
2017-02-22T04:11:12.862Z,10.26
2017-02-22T04:11:53.446Z,10.28
2017-02-22T04:12:34.044Z,10.26
2017-02-22T04:13:14.623Z,10.3
2017-02-22T04:13:55.274Z,10.31
2017-02-22T04:14:35.887Z,10.33
2017-02-22T04:15:16.497Z,10.3
2017-02-22T04:15:57.115Z,10.31
2017-02-22T04:16:37.727Z,10.28
2017-02-22T04:17:18.371Z,10.31
2017-02-22T04:17:58.990Z,10.34
2017-02-22T04:18:39.588Z,10.31
2017-02-22T04:19:20.167Z,10.28
2017-02-22T04:20:00.790Z,10.34
2017-02-22T04:20:41.397Z,10.22
2017-02-22T04:21:21.968Z,10.31
2017-02-22T04:22:02.570Z,10.31
2017-02-22T04:22:43.257Z,10.25
2017-02-22T04:23:23.896Z,10.37
2017-02-22T04:24:04.502Z,10.2
2017-02-22T04:24:45.152Z,10.28
2017-02-22T04:25:25.767Z,10.33
2017-02-22T04:26:06.347Z,10.28
2017-02-22T04:26:46.995Z,10.31
2017-02-22T04:27:27.588Z,10.3
2017-02-22T04:28:08.170Z,10.33
2017-02-22T04:28:48.735Z,10.34
2017-02-22T04:29:29.352Z,10.31
2017-02-22T04:30:09.975Z,10.33
2017-02-22T04:30:50.699Z,10.38
2017-02-22T04:31:31.348Z,10.33
2017-02-22T04:32:11.931Z,10.33
2017-02-22T04:32:52.532Z,10.35
2017-02-22T04:33:33.143Z,10.34
2017-02-22T04:34:13.729Z,10.33
2017-02-22T04:34:54.352Z,10.35
2017-02-22T04:35:34.921Z,10.3
2017-02-22T04:36:15.529Z,10.35
2017-02-22T04:36:56.133Z,10.37
2017-02-22T04:37:36.849Z,10.38
2017-02-22T04:38:17.480Z,10.38
2017-02-22T04:38:58.066Z,10.38
2017-02-22T04:39:38.663Z,10.37
2017-02-22T04:40:19.279Z,10.35
2017-02-22T04:40:59.882Z,10.4
2017-02-22T04:41:40.505Z,10.31
2017-02-22T04:42:21.084Z,10.42
2017-02-22T04:43:01.696Z,10.34
2017-02-22T04:43:42.346Z,10.37
2017-02-22T04:44:22.962Z,10.38
2017-02-22T04:45:03.615Z,10.34
2017-02-22T04:45:44.200Z,10.41
2017-02-22T04:46:24.797Z,10.38
2017-02-22T04:47:05.389Z,10.37
2017-02-22T04:47:48.305Z,10.35
2017-02-22T04:48:29.294Z,10.41
2017-02-22T04:49:09.925Z,10.38
2017-02-22T04:49:51.339Z,10.31
2017-02-22T04:50:31.923Z,10.33
2017-02-22T04:51:12.778Z,10.35
2017-02-22T04:51:53.434Z,10.35
2017-02-22T04:52:34.048Z,10.34
2017-02-22T04:53:14.644Z,10.4
2017-02-22T04:53:55.254Z,10.33
2017-02-22T04:54:35.847Z,10.31
2017-02-22T04:55:16.455Z,10.35
2017-02-22T04:55:57.094Z,10.35
2017-02-22T04:56:37.708Z,10.33
2017-02-22T04:57:18.298Z,10.33
2017-02-22T04:57:58.907Z,10.34
2017-02-22T04:58:39.548Z,10.33
2017-02-22T04:59:20.162Z,10.31
2017-02-22T05:00:00.759Z,10.33
2017-02-22T05:00:41.326Z,10.33
2017-02-22T05:01:21.923Z,10.28
2017-02-22T05:02:02.558Z,10.35
2017-02-22T05:02:43.133Z,10.34
2017-02-22T05:03:23.764Z,10.31
2017-02-22T05:04:04.377Z,10.26
2017-02-22T05:04:44.936Z,10.4
2017-02-22T05:05:25.543Z,10.33
2017-02-22T05:06:06.107Z,10.33
2017-02-22T05:06:46.741Z,10.28
2017-02-22T05:07:27.385Z,10.23
2017-02-22T05:08:08.016Z,10.33
2017-02-22T05:08:48.663Z,10.2
2017-02-22T05:09:29.217Z,10.17
2017-02-22T05:10:09.789Z,10.22
2017-02-22T05:10:50.328Z,10.2
2017-02-22T05:11:30.936Z,10.3
2017-02-22T05:12:11.559Z,10.25
2017-02-22T05:12:52.174Z,10.23
2017-02-22T05:13:32.782Z,10.19
2017-02-22T05:14:13.387Z,10.2
2017-02-22T05:14:53.979Z,10.31
2017-02-22T05:15:34.538Z,10.34
2017-02-22T05:16:15.110Z,10.28
2017-02-22T05:16:55.761Z,10.28
2017-02-22T05:17:36.365Z,10.3
2017-02-22T05:18:16.970Z,10.26
2017-02-22T05:18:57.549Z,10.28
2017-02-22T05:19:38.115Z,10.23
2017-02-22T05:20:18.690Z,10.23
2017-02-22T05:20:59.253Z,10.26
2017-02-22T05:21:39.845Z,10.25
2017-02-22T05:22:20.407Z,10.26
2017-02-22T05:23:01.026Z,10.17
2017-02-22T05:23:41.679Z,10.17
2017-02-22T05:24:22.276Z,10.2
2017-02-22T05:25:02.884Z,10.26
2017-02-22T05:25:43.473Z,10.17
2017-02-22T05:26:24.032Z,10.22
2017-02-22T05:27:04.619Z,10.17
2017-02-22T05:27:45.237Z,10.23
2017-02-22T05:28:25.878Z,10.23
2017-02-22T05:29:06.478Z,10.25
2017-02-22T05:29:47.059Z,10.2
2017-02-22T05:30:27.613Z,10.1
2017-02-22T05:31:08.141Z,10.07
2017-02-22T05:31:48.681Z,10.1
2017-02-22T05:32:29.278Z,10.07
2017-02-22T05:33:09.951Z,10.1
2017-02-22T05:33:50.560Z,10.09
2017-02-22T05:34:31.215Z,10.02
2017-02-22T05:35:11.868Z,9.99
2017-02-22T05:35:52.491Z,9.99
2017-02-22T05:36:33.105Z,9.98
2017-02-22T05:37:13.701Z,9.95
2017-02-22T05:37:54.347Z,9.98
2017-02-22T05:38:34.953Z,9.95
2017-02-22T05:39:15.583Z,9.87
2017-02-22T05:39:56.193Z,9.84
2017-02-22T05:40:36.770Z,9.89
2017-02-22T05:41:17.333Z,9.84
2017-02-22T05:41:57.874Z,9.82
2017-02-22T05:42:38.463Z,9.82
2017-02-22T05:43:19.066Z,9.76
2017-02-22T05:43:59.692Z,9.82
2017-02-22T05:44:40.344Z,9.83
2017-02-22T05:45:20.914Z,9.79
2017-02-22T05:46:01.507Z,9.77
2017-02-22T05:46:42.083Z,9.74
2017-02-22T05:47:22.637Z,9.74
2017-02-22T05:48:03.250Z,9.72
2017-02-22T05:48:43.816Z,9.73
2017-02-22T05:49:24.588Z,9.76
2017-02-22T05:50:05.204Z,9.65
2017-02-22T05:50:45.794Z,9.74
2017-02-22T05:51:26.372Z,9.68
2017-02-22T05:52:06.955Z,9.66
2017-02-22T05:52:47.577Z,9.68
2017-02-22T05:53:28.192Z,9.66
2017-02-22T05:54:08.847Z,9.65
2017-02-22T05:54:49.471Z,9.66
2017-02-22T05:55:30.050Z,9.58
2017-02-22T05:56:10.621Z,9.66
2017-02-22T05:56:51.185Z,9.65
2017-02-22T05:57:31.775Z,9.64
2017-02-22T05:58:12.334Z,9.61
2017-02-22T05:58:52.991Z,9.62
2017-02-22T05:59:33.636Z,9.64
2017-02-22T06:00:14.245Z,9.55
2017-02-22T06:00:54.854Z,9.65
2017-02-22T06:01:35.453Z,9.73
2017-02-22T06:02:16.049Z,9.55
2017-02-22T06:02:56.913Z,9.58
2017-02-22T06:03:37.556Z,9.54
2017-02-22T06:04:18.167Z,9.54
2017-02-22T06:04:58.834Z,9.55
2017-02-22T06:05:39.483Z,9.58
2017-02-22T06:06:20.066Z,9.61
2017-02-22T06:07:00.671Z,9.58
2017-02-22T06:07:41.351Z,9.54
2017-02-22T06:08:21.956Z,9.55
2017-02-22T06:09:02.578Z,9.56
2017-02-22T06:09:43.211Z,9.55
2017-02-22T06:10:23.849Z,9.51
2017-02-22T06:11:04.451Z,9.61
2017-02-22T06:11:45.149Z,9.59
2017-02-22T06:12:25.862Z,9.54
2017-02-22T06:13:06.477Z,9.58
2017-02-22T06:13:47.082Z,9.54
2017-02-22T06:14:27.660Z,9.56
2017-02-22T06:15:08.275Z,9.51
2017-02-22T06:15:48.836Z,9.55
2017-02-22T06:16:29.415Z,9.54
2017-02-22T06:17:10.020Z,9.56
2017-02-22T06:17:50.610Z,9.51
2017-02-22T06:18:31.273Z,9.55
2017-02-22T06:19:11.869Z,9.46
2017-02-22T06:19:52.467Z,9.51
2017-02-22T06:20:33.088Z,9.54
2017-02-22T06:21:13.656Z,9.56
2017-02-22T06:21:54.250Z,9.58
2017-02-22T06:22:34.882Z,9.54
2017-02-22T06:23:15.475Z,9.5
2017-02-22T06:25:13.664Z,9.41
2017-02-22T06:25:54.277Z,9.44
2017-02-22T06:26:34.903Z,9.4
2017-02-22T06:27:15.484Z,9.44
2017-02-22T06:27:56.031Z,9.4
2017-02-22T06:28:36.637Z,9.43
2017-02-22T06:29:17.372Z,9.41
2017-02-22T06:29:57.946Z,9.44
2017-02-22T06:30:38.580Z,9.39
2017-02-22T06:31:19.143Z,9.41
2017-02-22T06:31:59.689Z,9.43
2017-02-22T06:32:40.854Z,9.41
2017-02-22T06:33:21.437Z,9.44
2017-02-22T06:34:02.025Z,9.39
2017-02-22T06:34:42.647Z,9.39
2017-02-22T06:36:40.851Z,9.4
2017-02-22T06:37:21.466Z,9.44
2017-02-22T06:38:02.122Z,9.39
2017-02-22T06:38:42.779Z,9.44
2017-02-22T06:39:23.397Z,9.44
2017-02-22T06:40:04.026Z,9.44
2017-02-22T06:40:44.668Z,9.43
2017-02-22T06:41:25.274Z,9.37
2017-02-22T06:42:05.917Z,9.37
2017-02-22T06:42:46.513Z,9.39
2017-02-22T06:43:27.119Z,9.41
2017-02-22T06:44:07.740Z,9.43
2017-02-22T06:44:48.321Z,9.46
2017-02-22T06:45:28.911Z,9.37
2017-02-22T06:46:09.499Z,9.44
2017-02-22T06:46:50.083Z,9.36
2017-02-22T06:47:30.649Z,9.44
2017-02-22T06:48:11.196Z,9.43
2017-02-22T06:48:51.791Z,9.4
2017-02-22T06:49:32.401Z,9.4
2017-02-22T06:50:12.997Z,9.46
2017-02-22T06:50:53.610Z,9.37
2017-02-22T06:51:34.295Z,9.41
2017-02-22T06:52:14.889Z,9.41
2017-02-22T06:52:55.499Z,9.36
2017-02-22T06:53:36.082Z,9.4
2017-02-22T06:54:16.653Z,9.4
2017-02-22T06:54:57.268Z,9.4
2017-02-22T06:55:37.849Z,9.36
2017-02-22T06:56:18.487Z,9.43
2017-02-22T06:56:59.127Z,9.43
2017-02-22T06:57:39.705Z,9.39
2017-02-22T06:58:20.312Z,9.46
2017-02-22T06:59:00.931Z,9.46
2017-02-22T06:59:41.572Z,9.43
2017-02-22T07:00:22.258Z,9.43
2017-02-22T07:01:02.878Z,9.4
2017-02-22T07:01:43.447Z,9.4
2017-02-22T07:02:23.988Z,9.4
2017-02-22T07:03:04.561Z,9.41
2017-02-22T07:03:45.138Z,9.4
2017-02-22T07:04:25.700Z,9.47
2017-02-22T07:05:06.304Z,9.43
2017-02-22T07:05:46.946Z,9.43
2017-02-22T07:06:27.603Z,9.46
2017-02-22T07:07:08.213Z,9.44
2017-02-22T07:07:48.790Z,9.44
2017-02-22T07:08:29.343Z,9.47
2017-02-22T07:09:09.903Z,9.43
2017-02-22T07:09:50.499Z,9.43
2017-02-22T07:10:31.148Z,9.41
2017-02-22T07:11:11.723Z,9.46
2017-02-22T07:11:52.385Z,9.36
2017-02-22T07:12:33.015Z,9.41
2017-02-22T07:13:13.609Z,9.37
2017-02-22T07:13:54.155Z,9.4
2017-02-22T07:14:34.792Z,9.41
2017-02-22T07:15:15.400Z,9.4
2017-02-22T07:15:56.023Z,9.39
2017-02-22T07:16:36.679Z,9.37
2017-02-22T07:17:17.320Z,9.37
2017-02-22T07:17:57.911Z,9.39
2017-02-22T07:18:38.510Z,9.39
2017-02-22T07:19:19.120Z,9.36
2017-02-22T07:19:59.726Z,9.39
2017-02-22T07:20:40.382Z,9.46
2017-02-22T07:21:20.995Z,9.46
2017-02-22T07:22:01.660Z,9.46
2017-02-22T07:22:42.368Z,9.47
2017-02-22T07:23:23.009Z,9.46
2017-02-22T07:24:03.690Z,9.48
2017-02-22T07:24:44.374Z,9.46
2017-02-22T07:25:25.060Z,9.46
2017-02-22T07:26:05.732Z,9.47
2017-02-22T07:26:46.392Z,9.46
2017-02-22T07:27:27.152Z,9.48
2017-02-22T07:28:07.798Z,9.46
2017-02-22T07:28:48.499Z,9.41
2017-02-22T07:29:29.415Z,9.39
2017-02-22T07:30:10.136Z,9.55
2017-02-22T07:30:50.824Z,9.46
2017-02-22T07:31:31.493Z,9.39
2017-02-22T07:32:12.295Z,9.39
2017-02-22T07:32:53.059Z,9.51
2017-02-22T07:33:33.699Z,9.46
2017-02-22T07:34:14.291Z,9.48
2017-02-22T07:34:55.066Z,9.48
2017-02-22T07:35:35.823Z,9.47
2017-02-22T07:36:16.528Z,9.4
2017-02-22T07:36:57.159Z,9.51
2017-02-22T07:37:37.784Z,9.46
2017-02-22T07:38:18.402Z,9.54
2017-02-22T07:38:59.004Z,9.51
2017-02-22T07:39:39.636Z,9.51
2017-02-22T07:40:20.223Z,9.51
2017-02-22T07:41:00.896Z,9.5
2017-02-22T07:41:41.546Z,9.51
2017-02-22T07:42:22.103Z,9.44
2017-02-22T07:43:02.694Z,9.54
2017-02-22T07:43:43.412Z,9.51
2017-02-22T07:44:24.035Z,9.55
2017-02-22T07:45:04.726Z,9.51
2017-02-22T07:45:45.286Z,9.55
2017-02-22T07:46:25.945Z,9.54
2017-02-22T07:47:06.548Z,9.61
2017-02-22T07:47:47.155Z,9.51
2017-02-22T07:48:27.756Z,9.55
2017-02-22T07:49:08.366Z,9.54
2017-02-22T07:49:48.974Z,9.46
2017-02-22T07:50:29.637Z,9.54
2017-02-22T07:51:10.285Z,9.51
2017-02-22T07:51:50.917Z,9.55
2017-02-22T07:52:31.614Z,9.54
2017-02-22T07:53:12.279Z,9.54
2017-02-22T07:53:52.853Z,9.58
2017-02-22T07:54:33.400Z,9.56
2017-02-22T07:55:14.038Z,9.59
2017-02-22T07:55:54.620Z,9.54
2017-02-22T07:56:35.289Z,9.66
2017-02-22T07:57:15.961Z,9.68
2017-02-22T07:57:56.670Z,9.64
2017-02-22T07:58:37.295Z,9.54
2017-02-22T07:59:17.918Z,9.65
2017-02-22T07:59:58.561Z,9.59
2017-02-22T08:00:39.203Z,9.65
2017-02-22T08:01:19.866Z,9.64
2017-02-22T08:02:00.516Z,9.61
2017-02-22T08:02:41.141Z,9.64
2017-02-22T08:03:21.798Z,9.73
2017-02-22T08:04:02.427Z,9.61
2017-02-22T08:04:43.012Z,9.65
2017-02-22T08:05:23.659Z,9.66
2017-02-22T08:06:04.315Z,9.66
2017-02-22T08:06:45.003Z,9.73
2017-02-22T08:07:25.661Z,9.66
2017-02-22T08:08:06.260Z,9.68
2017-02-22T08:08:46.961Z,9.66
2017-02-22T08:09:27.570Z,9.79
2017-02-22T08:10:08.141Z,9.73
2017-02-22T08:10:48.707Z,9.64
2017-02-22T08:11:29.396Z,9.64
2017-02-22T08:12:10.093Z,9.74
2017-02-22T08:12:50.737Z,9.69
2017-02-22T08:13:31.357Z,9.73
2017-02-22T08:14:12.031Z,9.74
2017-02-22T08:14:52.638Z,9.79
2017-02-22T08:15:33.337Z,9.73
2017-02-22T08:16:13.939Z,9.72
2017-02-22T08:16:54.535Z,9.74
2017-02-22T08:17:35.182Z,9.74
2017-02-22T08:18:15.846Z,9.76
2017-02-22T08:18:56.444Z,9.79
2017-02-22T08:19:37.100Z,9.8
2017-02-22T08:20:17.801Z,9.84
2017-02-22T08:20:58.531Z,9.77
2017-02-22T08:21:39.126Z,9.82
2017-02-22T08:22:19.765Z,9.8
2017-02-22T08:23:00.461Z,9.77
2017-02-22T08:23:41.048Z,9.84
2017-02-22T08:24:21.635Z,9.79
2017-02-22T08:25:02.204Z,9.94
2017-02-22T08:25:42.828Z,9.84
2017-02-22T08:26:23.482Z,9.84
2017-02-22T08:27:04.130Z,9.94
2017-02-22T08:27:44.772Z,9.91
2017-02-22T08:28:25.346Z,9.84
2017-02-22T08:29:05.957Z,9.94
2017-02-22T08:29:46.653Z,9.89
2017-02-22T08:30:27.270Z,9.92
2017-02-22T08:31:07.874Z,9.86
2017-02-22T08:31:48.496Z,9.97
2017-02-22T08:32:29.080Z,9.97
2017-02-22T08:33:09.669Z,9.98
2017-02-22T08:33:50.293Z,9.95
2017-02-22T08:34:30.939Z,9.98
2017-02-22T08:35:11.527Z,9.89
2017-02-22T08:35:52.106Z,9.98
2017-02-22T08:36:32.714Z,9.95
2017-02-22T08:37:13.423Z,9.97
2017-02-22T08:37:54.078Z,9.97
2017-02-22T08:38:34.755Z,9.91
2017-02-22T08:39:15.388Z,9.92
2017-02-22T08:39:56.050Z,9.98
2017-02-22T08:40:36.734Z,9.95
2017-02-22T08:41:17.437Z,9.84
2017-02-22T08:41:58.142Z,9.83
2017-02-22T08:42:38.936Z,9.94
2017-02-22T08:43:19.597Z,9.84
2017-02-22T08:44:00.238Z,9.89
2017-02-22T08:44:40.938Z,9.91
2017-02-22T08:45:21.585Z,9.84
2017-02-22T08:46:02.323Z,9.89
2017-02-22T08:46:43.071Z,9.86
2017-02-22T08:47:23.900Z,9.95
2017-02-22T08:48:04.638Z,9.94
2017-02-22T08:48:45.272Z,9.89
2017-02-22T08:49:25.940Z,9.87
2017-02-22T08:50:06.596Z,9.91
2017-02-22T08:50:47.261Z,9.84
2017-02-22T08:51:27.908Z,9.87
2017-02-22T08:52:08.633Z,9.87
2017-02-22T08:52:49.294Z,9.87
2017-02-22T08:53:29.888Z,9.91
2017-02-22T08:54:10.450Z,9.84
2017-02-22T08:54:51.084Z,9.86
2017-02-22T08:55:31.690Z,9.89
2017-02-22T08:56:12.304Z,9.83
2017-02-22T08:56:52.987Z,9.89
2017-02-22T08:57:33.611Z,9.84
2017-02-22T08:58:14.293Z,9.84
2017-02-22T08:58:55.026Z,9.86